sensor_id;sensor_type;location;lat;lon;timestamp;P1;durP1;ratioP1;P2;durP2;ratioP2
54929;SDS011;40833;53.238;6.576;2023-02-28T00:01:07;7.20;;;2.80;;
54929;SDS011;40833;53.238;6.576;2023-02-28T00:03:33;8.60;;;3.70;;
54929;SDS011;40833;53.238;6.576;2023-02-28T00:06:00;14.53;;;4.97;;
54929;SDS011;40833;53.238;6.576;2023-02-28T00:08:27;15.30;;;4.70;;
54929;SDS011;40833;53.238;6.576;2023-02-28T00:10:53;18.00;;;5.13;;
54929;SDS011;40833;53.238;6.576;2023-02-28T00:13:19;8.80;;;4.47;;
54929;SDS011;40833;53.238;6.576;2023-02-28T00:15:44;11.93;;;3.83;;
54929;SDS011;40833;53.238;6.576;2023-02-28T00:18:11;12.80;;;4.27;;
54929;SDS011;40833;53.238;6.576;2023-02-28T00:20:37;14.43;;;4.27;;
54929;SDS011;40833;53.238;6.576;2023-02-28T00:23:03;20.07;;;3.80;;
54929;SDS011;40833;53.238;6.576;2023-02-28T00:25:28;13.43;;;3.77;;
54929;SDS011;40833;53.238;6.576;2023-02-28T00:27:54;11.00;;;3.57;;
54929;SDS011;40833;53.238;6.576;2023-02-28T00:30:21;10.13;;;2.37;;
54929;SDS011;40833;53.238;6.576;2023-02-28T00:32:47;12.50;;;3.57;;
54929;SDS011;40833;53.238;6.576;2023-02-28T00:35:14;7.93;;;2.40;;
54929;SDS011;40833;53.238;6.576;2023-02-28T00:37:39;16.53;;;2.93;;
54929;SDS011;40833;53.238;6.576;2023-02-28T00:40:06;7.23;;;2.30;;
54929;SDS011;40833;53.238;6.576;2023-02-28T00:42:34;10.17;;;3.60;;
54929;SDS011;40833;53.238;6.576;2023-02-28T00:45:00;12.07;;;4.10;;
54929;SDS011;40833;53.238;6.576;2023-02-28T00:47:28;13.57;;;4.40;;
54929;SDS011;40833;53.238;6.576;2023-02-28T00:49:54;14.73;;;4.50;;
54929;SDS011;40833;53.238;6.576;2023-02-28T00:52:20;12.63;;;4.17;;
54929;SDS011;40833;53.238;6.576;2023-02-28T00:54:46;8.70;;;3.57;;
54929;SDS011;40833;53.238;6.576;2023-02-28T00:57:12;7.93;;;3.30;;
54929;SDS011;40833;53.238;6.576;2023-02-28T00:59:37;8.73;;;3.17;;
54929;SDS011;40833;53.238;6.576;2023-02-28T01:02:03;6.47;;;2.10;;
54929;SDS011;40833;53.238;6.576;2023-02-28T01:04:29;8.13;;;2.30;;
54929;SDS011;40833;53.238;6.576;2023-02-28T01:06:54;6.70;;;1.93;;
54929;SDS011;40833;53.238;6.576;2023-02-28T01:09:20;11.47;;;1.80;;
54929;SDS011;40833;53.238;6.576;2023-02-28T01:11:46;9.23;;;1.87;;
54929;SDS011;40833;53.238;6.576;2023-02-28T01:14:12;12.23;;;2.67;;
54929;SDS011;40833;53.238;6.576;2023-02-28T01:16:39;9.20;;;2.20;;
54929;SDS011;40833;53.238;6.576;2023-02-28T01:19:05;4.00;;;1.63;;
54929;SDS011;40833;53.238;6.576;2023-02-28T01:21:30;12.40;;;2.20;;
54929;SDS011;40833;53.238;6.576;2023-02-28T01:23:57;10.50;;;2.30;;
54929;SDS011;40833;53.238;6.576;2023-02-28T01:26:23;8.67;;;2.30;;
54929;SDS011;40833;53.238;6.576;2023-02-28T01:28:49;7.40;;;1.93;;
54929;SDS011;40833;53.238;6.576;2023-02-28T01:31:17;6.23;;;2.07;;
54929;SDS011;40833;53.238;6.576;2023-02-28T01:33:43;10.80;;;2.30;;
54929;SDS011;40833;53.238;6.576;2023-02-28T01:36:14;19.00;;;2.53;;
54929;SDS011;40833;53.238;6.576;2023-02-28T01:38:44;12.93;;;2.23;;
54929;SDS011;40833;53.238;6.576;2023-02-28T01:41:29;8.63;;;2.70;;
54929;SDS011;40833;53.238;6.576;2023-02-28T01:43:58;8.37;;;2.40;;
54929;SDS011;40833;53.238;6.576;2023-02-28T01:46:28;12.00;;;2.27;;
54929;SDS011;40833;53.238;6.576;2023-02-28T01:49:11;11.43;;;2.10;;
54929;SDS011;40833;53.238;6.576;2023-02-28T01:51:44;9.20;;;1.77;;
54929;SDS011;40833;53.238;6.576;2023-02-28T01:54:36;9.57;;;1.80;;
54929;SDS011;40833;53.238;6.576;2023-02-28T01:57:03;7.37;;;2.00;;
54929;SDS011;40833;53.238;6.576;2023-02-28T01:59:48;15.97;;;1.93;;
54929;SDS011;40833;53.238;6.576;2023-02-28T02:02:19;7.40;;;2.20;;
54929;SDS011;40833;53.238;6.576;2023-02-28T02:04:50;9.37;;;2.33;;
54929;SDS011;40833;53.238;6.576;2023-02-28T02:07:16;8.93;;;1.70;;
54929;SDS011;40833;53.238;6.576;2023-02-28T02:09:42;11.73;;;2.00;;
54929;SDS011;40833;53.238;6.576;2023-02-28T02:12:12;9.60;;;2.17;;
54929;SDS011;40833;53.238;6.576;2023-02-28T02:15:06;10.97;;;2.27;;
54929;SDS011;40833;53.238;6.576;2023-02-28T02:17:50;5.37;;;1.73;;
54929;SDS011;40833;53.238;6.576;2023-02-28T02:20:32;11.40;;;2.33;;
54929;SDS011;40833;53.238;6.576;2023-02-28T02:23:27;4.90;;;1.95;;
54929;SDS011;40833;53.238;6.576;2023-02-28T02:29:35;18.27;;;2.70;;
54929;SDS011;40833;53.238;6.576;2023-02-28T02:34:26;11.00;;;2.17;;
54929;SDS011;40833;53.238;6.576;2023-02-28T02:47:55;12.03;;;2.07;;
54929;SDS011;40833;53.238;6.576;2023-02-28T02:50:25;12.60;;;2.00;;
54929;SDS011;40833;53.238;6.576;2023-02-28T02:55:25;4.83;;;2.00;;
54929;SDS011;40833;53.238;6.576;2023-02-28T02:57:55;10.57;;;2.00;;
54929;SDS011;40833;53.238;6.576;2023-02-28T03:00:30;9.90;;;2.17;;
54929;SDS011;40833;53.238;6.576;2023-02-28T03:02:59;9.80;;;2.00;;
54929;SDS011;40833;53.238;6.576;2023-02-28T03:05:28;10.73;;;2.13;;
54929;SDS011;40833;53.238;6.576;2023-02-28T03:08:25;6.90;;;1.73;;
54929;SDS011;40833;53.238;6.576;2023-02-28T03:10:55;10.97;;;1.87;;
54929;SDS011;40833;53.238;6.576;2023-02-28T03:26:31;15.77;;;3.17;;
54929;SDS011;40833;53.238;6.576;2023-02-28T03:31:58;11.70;;;4.53;;
54929;SDS011;40833;53.238;6.576;2023-02-28T03:34:29;19.97;;;6.90;;
54929;SDS011;40833;53.238;6.576;2023-02-28T03:37:02;14.02;;;8.63;;
54929;SDS011;40833;53.238;6.576;2023-02-28T03:39:37;17.07;;;9.57;;
54929;SDS011;40833;53.238;6.576;2023-02-28T03:42:14;18.60;;;8.93;;
54929;SDS011;40833;53.238;6.576;2023-02-28T03:44:50;19.30;;;10.93;;
54929;SDS011;40833;53.238;6.576;2023-02-28T03:47:33;20.30;;;10.37;;
54929;SDS011;40833;53.238;6.576;2023-02-28T03:50:11;14.67;;;9.67;;
54929;SDS011;40833;53.238;6.576;2023-02-28T03:52:56;18.20;;;10.80;;
54929;SDS011;40833;53.238;6.576;2023-02-28T03:55:28;19.10;;;10.27;;
54929;SDS011;40833;53.238;6.576;2023-02-28T03:58:04;18.03;;;10.93;;
54929;SDS011;40833;53.238;6.576;2023-02-28T04:00:36;17.00;;;10.20;;
54929;SDS011;40833;53.238;6.576;2023-02-28T04:03:05;16.83;;;10.23;;
54929;SDS011;40833;53.238;6.576;2023-02-28T04:05:31;13.93;;;9.03;;
54929;SDS011;40833;53.238;6.576;2023-02-28T04:08:04;16.93;;;10.13;;
54929;SDS011;40833;53.238;6.576;2023-02-28T04:10:33;13.53;;;9.20;;
54929;SDS011;40833;53.238;6.576;2023-02-28T04:12:59;14.77;;;9.03;;
54929;SDS011;40833;53.238;6.576;2023-02-28T04:15:24;16.70;;;8.83;;
54929;SDS011;40833;53.238;6.576;2023-02-28T04:17:52;13.63;;;9.37;;
54929;SDS011;40833;53.238;6.576;2023-02-28T04:20:18;13.47;;;8.90;;
54929;SDS011;40833;53.238;6.576;2023-02-28T04:22:44;16.23;;;8.70;;
54929;SDS011;40833;53.238;6.576;2023-02-28T04:25:09;14.73;;;9.33;;
54929;SDS011;40833;53.238;6.576;2023-02-28T04:27:35;22.43;;;10.33;;
54929;SDS011;40833;53.238;6.576;2023-02-28T04:30:01;18.17;;;9.50;;
54929;SDS011;40833;53.238;6.576;2023-02-28T04:32:27;14.73;;;9.00;;
54929;SDS011;40833;53.238;6.576;2023-02-28T04:34:53;13.43;;;8.90;;
54929;SDS011;40833;53.238;6.576;2023-02-28T04:37:19;12.17;;;8.40;;
54929;SDS011;40833;53.238;6.576;2023-02-28T04:39:55;9.50;;;6.63;;
54929;SDS011;40833;53.238;6.576;2023-02-28T04:42:20;9.33;;;7.47;;
54929;SDS011;40833;53.238;6.576;2023-02-28T04:44:46;8.93;;;6.87;;
54929;SDS011;40833;53.238;6.576;2023-02-28T04:47:12;9.03;;;6.93;;
54929;SDS011;40833;53.238;6.576;2023-02-28T04:49:38;8.33;;;6.70;;
54929;SDS011;40833;53.238;6.576;2023-02-28T04:52:03;7.40;;;5.40;;
54929;SDS011;40833;53.238;6.576;2023-02-28T04:54:29;7.70;;;6.17;;
54929;SDS011;40833;53.238;6.576;2023-02-28T04:56:55;10.97;;;6.40;;
54929;SDS011;40833;53.238;6.576;2023-02-28T04:59:21;8.80;;;6.73;;
54929;SDS011;40833;53.238;6.576;2023-02-28T05:01:47;8.43;;;5.80;;
54929;SDS011;40833;53.238;6.576;2023-02-28T05:04:13;7.47;;;5.17;;
54929;SDS011;40833;53.238;6.576;2023-02-28T05:06:39;10.07;;;5.90;;
54929;SDS011;40833;53.238;6.576;2023-02-28T05:09:05;7.40;;;5.90;;
54929;SDS011;40833;53.238;6.576;2023-02-28T05:11:32;6.40;;;5.40;;
54929;SDS011;40833;53.238;6.576;2023-02-28T05:14:02;7.47;;;5.60;;
54929;SDS011;40833;53.238;6.576;2023-02-28T05:16:29;8.47;;;6.60;;
54929;SDS011;40833;53.238;6.576;2023-02-28T05:18:55;10.03;;;5.43;;
54929;SDS011;40833;53.238;6.576;2023-02-28T05:21:25;7.63;;;6.10;;
54929;SDS011;40833;53.238;6.576;2023-02-28T05:23:59;8.93;;;5.90;;
54929;SDS011;40833;53.238;6.576;2023-02-28T05:26:29;7.47;;;5.60;;
54929;SDS011;40833;53.238;6.576;2023-02-28T05:28:58;7.67;;;5.87;;
54929;SDS011;40833;53.238;6.576;2023-02-28T05:31:24;7.20;;;6.10;;
54929;SDS011;40833;53.238;6.576;2023-02-28T05:33:50;10.40;;;6.00;;
54929;SDS011;40833;53.238;6.576;2023-02-28T05:36:16;6.90;;;5.43;;
54929;SDS011;40833;53.238;6.576;2023-02-28T05:38:42;8.87;;;6.47;;
54929;SDS011;40833;53.238;6.576;2023-02-28T05:41:08;10.30;;;6.13;;
54929;SDS011;40833;53.238;6.576;2023-02-28T05:43:35;7.97;;;6.07;;
54929;SDS011;40833;53.238;6.576;2023-02-28T05:46:05;10.53;;;6.47;;
54929;SDS011;40833;53.238;6.576;2023-02-28T05:48:33;9.93;;;6.53;;
54929;SDS011;40833;53.238;6.576;2023-02-28T05:50:59;12.47;;;7.07;;
54929;SDS011;40833;53.238;6.576;2023-02-28T05:53:25;10.83;;;7.30;;
54929;SDS011;40833;53.238;6.576;2023-02-28T05:55:51;13.83;;;7.17;;
54929;SDS011;40833;53.238;6.576;2023-02-28T05:58:17;11.40;;;6.80;;
54929;SDS011;40833;53.238;6.576;2023-02-28T06:00:43;11.53;;;6.83;;
54929;SDS011;40833;53.238;6.576;2023-02-28T06:03:09;12.00;;;7.50;;
54929;SDS011;40833;53.238;6.576;2023-02-28T06:05:35;10.27;;;6.63;;
54929;SDS011;40833;53.238;6.576;2023-02-28T06:08:00;11.60;;;8.10;;
54929;SDS011;40833;53.238;6.576;2023-02-28T06:10:26;13.23;;;8.07;;
54929;SDS011;40833;53.238;6.576;2023-02-28T06:12:52;12.30;;;7.97;;
54929;SDS011;40833;53.238;6.576;2023-02-28T06:15:17;12.03;;;7.87;;
54929;SDS011;40833;53.238;6.576;2023-02-28T06:17:43;10.53;;;7.80;;
54929;SDS011;40833;53.238;6.576;2023-02-28T06:20:09;11.70;;;8.47;;
54929;SDS011;40833;53.238;6.576;2023-02-28T06:22:38;14.27;;;7.87;;
54929;SDS011;40833;53.238;6.576;2023-02-28T06:25:04;15.47;;;8.60;;
54929;SDS011;40833;53.238;6.576;2023-02-28T06:27:31;13.33;;;8.77;;
54929;SDS011;40833;53.238;6.576;2023-02-28T06:29:58;12.93;;;8.87;;
54929;SDS011;40833;53.238;6.576;2023-02-28T06:32:24;13.20;;;8.80;;
54929;SDS011;40833;53.238;6.576;2023-02-28T06:34:49;14.60;;;8.67;;
54929;SDS011;40833;53.238;6.576;2023-02-28T06:37:16;13.93;;;8.67;;
54929;SDS011;40833;53.238;6.576;2023-02-28T06:39:42;16.07;;;9.57;;
54929;SDS011;40833;53.238;6.576;2023-02-28T06:42:08;17.63;;;9.70;;
54929;SDS011;40833;53.238;6.576;2023-02-28T06:44:34;16.63;;;9.57;;
54929;SDS011;40833;53.238;6.576;2023-02-28T06:47:04;12.97;;;8.83;;
54929;SDS011;40833;53.238;6.576;2023-02-28T06:49:31;13.70;;;8.40;;
54929;SDS011;40833;53.238;6.576;2023-02-28T06:51:58;15.23;;;8.80;;
54929;SDS011;40833;53.238;6.576;2023-02-28T06:54:24;11.77;;;8.23;;
54929;SDS011;40833;53.238;6.576;2023-02-28T06:56:50;14.03;;;8.70;;
54929;SDS011;40833;53.238;6.576;2023-02-28T06:59:16;15.87;;;9.83;;
54929;SDS011;40833;53.238;6.576;2023-02-28T07:01:41;16.47;;;9.60;;
54929;SDS011;40833;53.238;6.576;2023-02-28T07:04:07;16.37;;;9.20;;
54929;SDS011;40833;53.238;6.576;2023-02-28T07:06:33;18.07;;;9.43;;
54929;SDS011;40833;53.238;6.576;2023-02-28T07:08:59;15.60;;;9.30;;
54929;SDS011;40833;53.238;6.576;2023-02-28T07:11:26;17.73;;;10.20;;
54929;SDS011;40833;53.238;6.576;2023-02-28T07:13:53;13.80;;;10.13;;
54929;SDS011;40833;53.238;6.576;2023-02-28T07:16:20;16.83;;;10.60;;
54929;SDS011;40833;53.238;6.576;2023-02-28T07:18:46;13.47;;;10.43;;
54929;SDS011;40833;53.238;6.576;2023-02-28T07:21:12;16.87;;;10.60;;
54929;SDS011;40833;53.238;6.576;2023-02-28T07:23:38;16.17;;;10.93;;
54929;SDS011;40833;53.238;6.576;2023-02-28T07:26:05;16.60;;;10.87;;
54929;SDS011;40833;53.238;6.576;2023-02-28T07:28:32;21.13;;;11.23;;
54929;SDS011;40833;53.238;6.576;2023-02-28T07:31:02;15.10;;;10.73;;
54929;SDS011;40833;53.238;6.576;2023-02-28T07:33:30;18.63;;;11.82;;
54929;SDS011;40833;53.238;6.576;2023-02-28T07:35:59;16.63;;;11.10;;
54929;SDS011;40833;53.238;6.576;2023-02-28T07:38:36;21.50;;;12.20;;
54929;SDS011;40833;53.238;6.576;2023-02-28T07:41:03;19.53;;;11.67;;
54929;SDS011;40833;53.238;6.576;2023-02-28T07:43:29;17.70;;;10.90;;
54929;SDS011;40833;53.238;6.576;2023-02-28T07:46:05;17.63;;;11.20;;
54929;SDS011;40833;53.238;6.576;2023-02-28T07:48:33;18.10;;;11.87;;
54929;SDS011;40833;53.238;6.576;2023-02-28T07:50:59;18.23;;;11.90;;
54929;SDS011;40833;53.238;6.576;2023-02-28T07:53:25;15.17;;;11.20;;
54929;SDS011;40833;53.238;6.576;2023-02-28T07:55:54;16.57;;;11.43;;
54929;SDS011;40833;53.238;6.576;2023-02-28T07:58:21;18.70;;;11.93;;
54929;SDS011;40833;53.238;6.576;2023-02-28T08:00:47;20.30;;;12.27;;
54929;SDS011;40833;53.238;6.576;2023-02-28T08:03:12;20.13;;;11.00;;
54929;SDS011;40833;53.238;6.576;2023-02-28T08:05:41;18.50;;;12.33;;
54929;SDS011;40833;53.238;6.576;2023-02-28T08:08:07;17.87;;;10.80;;
54929;SDS011;40833;53.238;6.576;2023-02-28T08:10:33;16.93;;;10.90;;
54929;SDS011;40833;53.238;6.576;2023-02-28T08:12:59;16.67;;;11.10;;
54929;SDS011;40833;53.238;6.576;2023-02-28T08:15:25;14.93;;;10.13;;
54929;SDS011;40833;53.238;6.576;2023-02-28T08:17:51;14.50;;;9.77;;
54929;SDS011;40833;53.238;6.576;2023-02-28T08:20:17;14.90;;;10.63;;
54929;SDS011;40833;53.238;6.576;2023-02-28T08:22:42;20.97;;;9.83;;
54929;SDS011;40833;53.238;6.576;2023-02-28T08:25:09;15.53;;;9.90;;
54929;SDS011;40833;53.238;6.576;2023-02-28T08:27:35;14.63;;;10.60;;
54929;SDS011;40833;53.238;6.576;2023-02-28T08:30:01;13.50;;;10.60;;
54929;SDS011;40833;53.238;6.576;2023-02-28T08:32:28;19.80;;;11.43;;
54929;SDS011;40833;53.238;6.576;2023-02-28T08:34:54;17.83;;;11.20;;
54929;SDS011;40833;53.238;6.576;2023-02-28T08:37:19;18.50;;;9.93;;
54929;SDS011;40833;53.238;6.576;2023-02-28T08:39:45;18.50;;;11.23;;
54929;SDS011;40833;53.238;6.576;2023-02-28T08:42:11;17.43;;;11.60;;
54929;SDS011;40833;53.238;6.576;2023-02-28T08:44:36;17.40;;;11.57;;
54929;SDS011;40833;53.238;6.576;2023-02-28T08:47:02;17.70;;;12.33;;
54929;SDS011;40833;53.238;6.576;2023-02-28T08:49:28;16.63;;;11.00;;
54929;SDS011;40833;53.238;6.576;2023-02-28T08:51:54;16.43;;;11.03;;
54929;SDS011;40833;53.238;6.576;2023-02-28T08:54:22;18.33;;;11.27;;
54929;SDS011;40833;53.238;6.576;2023-02-28T08:56:48;15.83;;;10.40;;
54929;SDS011;40833;53.238;6.576;2023-02-28T08:59:14;15.23;;;10.10;;
54929;SDS011;40833;53.238;6.576;2023-02-28T09:01:40;14.70;;;10.40;;
54929;SDS011;40833;53.238;6.576;2023-02-28T09:04:06;17.03;;;10.43;;
54929;SDS011;40833;53.238;6.576;2023-02-28T09:06:33;14.53;;;10.13;;
54929;SDS011;40833;53.238;6.576;2023-02-28T09:09:00;14.47;;;9.30;;
54929;SDS011;40833;53.238;6.576;2023-02-28T09:11:26;16.00;;;9.57;;
54929;SDS011;40833;53.238;6.576;2023-02-28T09:13:53;15.63;;;10.40;;
54929;SDS011;40833;53.238;6.576;2023-02-28T09:16:20;15.43;;;9.73;;
54929;SDS011;40833;53.238;6.576;2023-02-28T09:18:46;17.47;;;10.60;;
54929;SDS011;40833;53.238;6.576;2023-02-28T09:21:13;13.30;;;9.37;;
54929;SDS011;40833;53.238;6.576;2023-02-28T09:23:41;15.87;;;8.80;;
54929;SDS011;40833;53.238;6.576;2023-02-28T09:26:08;14.07;;;9.53;;
54929;SDS011;40833;53.238;6.576;2023-02-28T09:28:39;15.43;;;9.77;;
54929;SDS011;40833;53.238;6.576;2023-02-28T09:31:04;12.93;;;9.53;;
54929;SDS011;40833;53.238;6.576;2023-02-28T09:33:30;13.10;;;9.70;;
54929;SDS011;40833;53.238;6.576;2023-02-28T09:35:59;14.93;;;9.73;;
54929;SDS011;40833;53.238;6.576;2023-02-28T09:38:26;14.53;;;9.10;;
54929;SDS011;40833;53.238;6.576;2023-02-28T09:40:53;16.47;;;10.40;;
54929;SDS011;40833;53.238;6.576;2023-02-28T09:43:25;18.57;;;10.13;;
54929;SDS011;40833;53.238;6.576;2023-02-28T09:46:20;12.57;;;9.57;;
54929;SDS011;40833;53.238;6.576;2023-02-28T09:48:44;13.43;;;9.23;;
54929;SDS011;40833;53.238;6.576;2023-02-28T09:54:13;16.43;;;9.17;;
54929;SDS011;40833;53.238;6.576;2023-02-28T09:56:53;13.73;;;9.57;;
54929;SDS011;40833;53.238;6.576;2023-02-28T10:05:02;14.90;;;8.60;;
54929;SDS011;40833;53.238;6.576;2023-02-28T10:10:49;13.37;;;9.63;;
54929;SDS011;40833;53.238;6.576;2023-02-28T10:16:37;13.97;;;9.07;;
54929;SDS011;40833;53.238;6.576;2023-02-28T10:22:14;14.30;;;8.77;;
54929;SDS011;40833;53.238;6.576;2023-02-28T10:27:25;16.17;;;7.83;;
54929;SDS011;40833;53.238;6.576;2023-02-28T10:29:56;11.70;;;7.93;;
54929;SDS011;40833;53.238;6.576;2023-02-28T10:32:27;10.47;;;7.60;;
54929;SDS011;40833;53.238;6.576;2023-02-28T10:37:44;9.97;;;7.63;;
54929;SDS011;40833;53.238;6.576;2023-02-28T10:42:54;13.33;;;7.90;;
54929;SDS011;40833;53.238;6.576;2023-02-28T10:45:21;10.90;;;7.30;;
54929;SDS011;40833;53.238;6.576;2023-02-28T10:47:55;13.30;;;7.57;;
54929;SDS011;40833;53.238;6.576;2023-02-28T10:53:06;14.00;;;6.33;;
54929;SDS011;40833;53.238;6.576;2023-02-28T11:01:17;8.03;;;5.27;;
54929;SDS011;40833;53.238;6.576;2023-02-28T11:03:45;7.07;;;4.83;;
54929;SDS011;40833;53.238;6.576;2023-02-28T11:06:16;8.10;;;6.20;;
54929;SDS011;40833;53.238;6.576;2023-02-28T11:08:56;6.67;;;5.67;;
54929;SDS011;40833;53.238;6.576;2023-02-28T11:11:25;10.67;;;6.13;;
54929;SDS011;40833;53.238;6.576;2023-02-28T11:13:53;9.77;;;6.33;;
54929;SDS011;40833;53.238;6.576;2023-02-28T11:16:22;8.73;;;6.27;;
54929;SDS011;40833;53.238;6.576;2023-02-28T11:19:02;11.00;;;6.80;;
54929;SDS011;40833;53.238;6.576;2023-02-28T11:21:36;10.10;;;6.13;;
54929;SDS011;40833;53.238;6.576;2023-02-28T11:24:23;10.37;;;5.33;;
54929;SDS011;40833;53.238;6.576;2023-02-28T11:26:58;6.53;;;4.50;;
54929;SDS011;40833;53.238;6.576;2023-02-28T11:29:28;7.67;;;4.37;;
54929;SDS011;40833;53.238;6.576;2023-02-28T11:32:02;6.73;;;4.30;;
54929;SDS011;40833;53.238;6.576;2023-02-28T11:34:44;6.67;;;3.80;;
54929;SDS011;40833;53.238;6.576;2023-02-28T11:37:15;3.70;;;3.03;;
54929;SDS011;40833;53.238;6.576;2023-02-28T11:39:43;5.20;;;3.07;;
54929;SDS011;40833;53.238;6.576;2023-02-28T11:42:17;7.80;;;4.10;;
54929;SDS011;40833;53.238;6.576;2023-02-28T11:50:53;8.40;;;4.37;;
54929;SDS011;40833;53.238;6.576;2023-02-28T11:53:39;4.07;;;3.67;;
54929;SDS011;40833;53.238;6.576;2023-02-28T11:56:13;7.53;;;4.93;;
54929;SDS011;40833;53.238;6.576;2023-02-28T12:01:45;8.37;;;5.63;;
54929;SDS011;40833;53.238;6.576;2023-02-28T12:04:42;6.33;;;5.03;;
54929;SDS011;40833;53.238;6.576;2023-02-28T12:20:42;7.43;;;5.03;;
54929;SDS011;40833;53.238;6.576;2023-02-28T12:26:07;14.02;;;4.55;;
54929;SDS011;40833;53.238;6.576;2023-02-28T12:29:04;6.67;;;4.37;;
54929;SDS011;40833;53.238;6.576;2023-02-28T12:31:41;9.67;;;4.20;;
54929;SDS011;40833;53.238;6.576;2023-02-28T12:34:33;7.33;;;4.30;;
54929;SDS011;40833;53.238;6.576;2023-02-28T12:37:07;7.90;;;4.43;;
54929;SDS011;40833;53.238;6.576;2023-02-28T12:39:56;5.85;;;4.38;;
54929;SDS011;40833;53.238;6.576;2023-02-28T12:42:31;6.13;;;3.73;;
54929;SDS011;40833;53.238;6.576;2023-02-28T12:45:05;5.83;;;4.67;;
54929;SDS011;40833;53.238;6.576;2023-02-28T12:47:38;9.27;;;4.53;;
54929;SDS011;40833;53.238;6.576;2023-02-28T12:50:06;7.50;;;4.13;;
54929;SDS011;40833;53.238;6.576;2023-02-28T12:58:43;6.53;;;4.60;;
54929;SDS011;40833;53.238;6.576;2023-02-28T13:09:35;6.60;;;4.47;;
54929;SDS011;40833;53.238;6.576;2023-02-28T13:12:01;8.13;;;4.90;;
54929;SDS011;40833;53.238;6.576;2023-02-28T13:14:38;6.07;;;4.37;;
54929;SDS011;40833;53.238;6.576;2023-02-28T13:19:37;5.15;;;4.30;;
54929;SDS011;40833;53.238;6.576;2023-02-28T13:22:18;7.23;;;4.70;;
54929;SDS011;40833;53.238;6.576;2023-02-28T13:24:45;9.70;;;5.23;;
54929;SDS011;40833;53.238;6.576;2023-02-28T13:29:49;5.83;;;4.60;;
54929;SDS011;40833;53.238;6.576;2023-02-28T13:39:57;6.63;;;4.40;;
54929;SDS011;40833;53.238;6.576;2023-02-28T13:45:22;6.60;;;4.47;;
54929;SDS011;40833;53.238;6.576;2023-02-28T13:47:53;6.23;;;4.27;;
54929;SDS011;40833;53.238;6.576;2023-02-28T14:07:15;6.50;;;4.90;;
54929;SDS011;40833;53.238;6.576;2023-02-28T14:09:49;5.63;;;4.33;;
54929;SDS011;40833;53.238;6.576;2023-02-28T14:21:24;7.97;;;4.77;;
54929;SDS011;40833;53.238;6.576;2023-02-28T14:35:18;10.00;;;4.53;;
54929;SDS011;40833;53.238;6.576;2023-02-28T14:37:45;5.63;;;4.80;;
54929;SDS011;40833;53.238;6.576;2023-02-28T14:40:32;6.37;;;4.83;;
54929;SDS011;40833;53.238;6.576;2023-02-28T14:43:01;6.83;;;4.60;;
54929;SDS011;40833;53.238;6.576;2023-02-28T14:45:32;5.33;;;4.37;;
54929;SDS011;40833;53.238;6.576;2023-02-28T14:48:01;9.10;;;4.97;;
54929;SDS011;40833;53.238;6.576;2023-02-28T14:50:30;5.60;;;4.93;;
54929;SDS011;40833;53.238;6.576;2023-02-28T14:52:59;6.00;;;4.30;;
54929;SDS011;40833;53.238;6.576;2023-02-28T14:55:32;7.33;;;4.93;;
54929;SDS011;40833;53.238;6.576;2023-02-28T14:58:01;6.60;;;4.70;;
54929;SDS011;40833;53.238;6.576;2023-02-28T15:00:49;7.70;;;5.63;;
54929;SDS011;40833;53.238;6.576;2023-02-28T15:06:04;6.43;;;4.80;;
54929;SDS011;40833;53.238;6.576;2023-02-28T15:08:32;6.93;;;4.90;;
54929;SDS011;40833;53.238;6.576;2023-02-28T15:11:17;8.47;;;5.30;;
54929;SDS011;40833;53.238;6.576;2023-02-28T15:13:53;7.00;;;4.93;;
54929;SDS011;40833;53.238;6.576;2023-02-28T15:16:25;6.40;;;4.67;;
54929;SDS011;40833;53.238;6.576;2023-02-28T15:19:04;7.33;;;4.77;;
54929;SDS011;40833;53.238;6.576;2023-02-28T15:21:40;7.80;;;4.40;;
54929;SDS011;40833;53.238;6.576;2023-02-28T15:24:30;8.43;;;5.07;;
54929;SDS011;40833;53.238;6.576;2023-02-28T15:27:14;5.57;;;4.30;;
54929;SDS011;40833;53.238;6.576;2023-02-28T15:29:59;9.03;;;4.57;;
54929;SDS011;40833;53.238;6.576;2023-02-28T15:32:33;5.40;;;4.27;;
54929;SDS011;40833;53.238;6.576;2023-02-28T15:35:17;7.37;;;3.73;;
54929;SDS011;40833;53.238;6.576;2023-02-28T15:43:27;9.23;;;4.23;;
54929;SDS011;40833;53.238;6.576;2023-02-28T15:45:58;5.60;;;4.10;;
54929;SDS011;40833;53.238;6.576;2023-02-28T15:48:32;5.27;;;4.20;;
54929;SDS011;40833;53.238;6.576;2023-02-28T15:51:09;5.77;;;4.40;;
54929;SDS011;40833;53.238;6.576;2023-02-28T15:56:47;8.70;;;4.80;;
54929;SDS011;40833;53.238;6.576;2023-02-28T15:59:18;9.07;;;4.93;;
54929;SDS011;40833;53.238;6.576;2023-02-28T16:02:01;5.70;;;4.67;;
54929;SDS011;40833;53.238;6.576;2023-02-28T16:04:27;6.07;;;4.10;;
54929;SDS011;40833;53.238;6.576;2023-02-28T16:09:25;5.93;;;5.00;;
54929;SDS011;40833;53.238;6.576;2023-02-28T16:11:53;8.13;;;5.80;;
54929;SDS011;40833;53.238;6.576;2023-02-28T16:14:24;8.77;;;5.40;;
54929;SDS011;40833;53.238;6.576;2023-02-28T16:16:54;6.78;;;5.53;;
54929;SDS011;40833;53.238;6.576;2023-02-28T16:19:21;7.80;;;4.80;;
54929;SDS011;40833;53.238;6.576;2023-02-28T16:21:47;7.10;;;5.33;;
54929;SDS011;40833;53.238;6.576;2023-02-28T16:24:13;6.43;;;5.50;;
54929;SDS011;40833;53.238;6.576;2023-02-28T16:26:40;9.07;;;5.60;;
54929;SDS011;40833;53.238;6.576;2023-02-28T16:29:08;9.63;;;5.93;;
54929;SDS011;40833;53.238;6.576;2023-02-28T16:31:38;6.33;;;5.63;;
54929;SDS011;40833;53.238;6.576;2023-02-28T16:34:04;10.90;;;5.60;;
54929;SDS011;40833;53.238;6.576;2023-02-28T16:36:30;8.03;;;5.50;;
54929;SDS011;40833;53.238;6.576;2023-02-28T16:38:56;7.63;;;5.17;;
54929;SDS011;40833;53.238;6.576;2023-02-28T16:41:23;8.33;;;5.70;;
54929;SDS011;40833;53.238;6.576;2023-02-28T16:43:51;7.90;;;5.97;;
54929;SDS011;40833;53.238;6.576;2023-02-28T16:46:19;9.03;;;5.60;;
54929;SDS011;40833;53.238;6.576;2023-02-28T16:48:45;7.67;;;5.13;;
54929;SDS011;40833;53.238;6.576;2023-02-28T16:51:17;10.33;;;8.07;;
54929;SDS011;40833;53.238;6.576;2023-02-28T16:53:43;11.43;;;7.40;;
54929;SDS011;40833;53.238;6.576;2023-02-28T16:56:17;8.40;;;5.73;;
54929;SDS011;40833;53.238;6.576;2023-02-28T16:58:45;7.77;;;5.70;;
54929;SDS011;40833;53.238;6.576;2023-02-28T17:01:12;7.70;;;5.80;;
54929;SDS011;40833;53.238;6.576;2023-02-28T17:03:38;8.63;;;5.47;;
54929;SDS011;40833;53.238;6.576;2023-02-28T17:06:05;11.47;;;6.47;;
54929;SDS011;40833;53.238;6.576;2023-02-28T17:11:03;12.27;;;6.33;;
54929;SDS011;40833;53.238;6.576;2023-02-28T17:13:29;11.23;;;6.13;;
54929;SDS011;40833;53.238;6.576;2023-02-28T17:15:55;7.80;;;6.27;;
54929;SDS011;40833;53.238;6.576;2023-02-28T17:18:21;8.00;;;6.03;;
54929;SDS011;40833;53.238;6.576;2023-02-28T17:20:47;11.07;;;6.40;;
54929;SDS011;40833;53.238;6.576;2023-02-28T17:23:13;9.83;;;6.10;;
54929;SDS011;40833;53.238;6.576;2023-02-28T17:25:39;9.17;;;6.17;;
54929;SDS011;40833;53.238;6.576;2023-02-28T17:28:04;8.00;;;6.03;;
54929;SDS011;40833;53.238;6.576;2023-02-28T17:30:30;10.27;;;6.63;;
54929;SDS011;40833;53.238;6.576;2023-02-28T17:32:58;8.10;;;6.53;;
54929;SDS011;40833;53.238;6.576;2023-02-28T17:35:24;9.20;;;7.23;;
54929;SDS011;40833;53.238;6.576;2023-02-28T17:37:51;10.27;;;7.43;;
54929;SDS011;40833;53.238;6.576;2023-02-28T17:40:21;9.30;;;7.47;;
54929;SDS011;40833;53.238;6.576;2023-02-28T17:42:48;7.80;;;6.97;;
54929;SDS011;40833;53.238;6.576;2023-02-28T17:45:14;8.60;;;7.20;;
54929;SDS011;40833;53.238;6.576;2023-02-28T17:47:40;10.13;;;7.57;;
54929;SDS011;40833;53.238;6.576;2023-02-28T17:50:14;11.53;;;8.37;;
54929;SDS011;40833;53.238;6.576;2023-02-28T17:52:44;10.43;;;8.07;;